Coraopolis, PA

11:08 AM EST on February 25, 2017 (GMT -0500)
Pittsburgh International | | Change Station

Elev 1204 ft 40.49 °N, 80.23 °W | Updated 17 minutes ago

Overcast
Overcast
48 °F
Feels Like 48 °F
N
15
Wind Variable Wind from West
Gusts 24 mph

Today
High -- | Low -- °F
--% Chance of Precip.
Yesterday
High -- | Low -- °F
Precip. -- in
Pressure 29.62 in
Visibility 10.0 miles
Clouds Scattered Clouds 2500 ft
Mostly Cloudy 3800 ft
Overcast 12000 ft
Dew Point 40 °F
Humidity 74%
Rainfall 0.30 in
Snow Depth Not available.
7:00 AM 6:08 PM
Waning Crescent, 1% visible
METAR KPIT 251551Z 26013G21KT 10SM SCT025 BKN038 OVC120 09/04 A2959 RMK AO2 SLP028 T00890044
Pressure 29.62 in
Visibility 10.0 miles
Clouds Scattered Clouds 2500 ft
Mostly Cloudy 3800 ft
Overcast 12000 ft
Dew Point 40 °F
Humidity 74%
Rainfall 0.30 in
Snow Depth Not available.
7:00 AM 6:08 PM
Waning Crescent, 1% visible
METAR KPIT 251551Z 26013G21KT 10SM SCT025 BKN038 OVC120 09/04 A2959 RMK AO2 SLP028 T00890044

Get Your Daily Forecast Email!

Thanks for signing up!

Be on the lookout for a verification email in your inbox.

You'll start receiving the daily forecast at 8 AM.

×

10-Day Weather Forecast

Almanac

Astronomy

Feb. 25, 2017 Rise Set
Actual Time
Civil Twilight
Nautical Twilight
Astronomical Twilight
Moon
Length of Visible Light
Length of Day
Tomorrow will be .
, % of the Moon is Illuminated

Today's Extremes

State Highs State Lows

Community

WunderPhotos

Upload Photos

1,962,540 photos uploaded!

WunderBlog® & News

Nearby

Air Quality

  Air Quality AQ Index Pollutant
Not available.

Snow Depth

Station Depth Elevation

Earthquake Activity

City Distance Mag. Time & Date
Minimum magnitude displayed is 2.5.

Coastal Water Temperatures

Place Temperature

Stations

Nearby Weather Stations

Station Location Temp. Windchill Dew Point Humidity Wind Precip. Elev Updated Type
                   

Watches & Warnings

There are currently no watches in effect.